< Typhoon 201303 2013 Season Typhoon 201305 >
Typhoon 201304 (LEEPI)
General InformationTrack Information on Google MapsDetailed Wind InformationForecast History on Google MapsAccess Analytics MapList of All Images || NewsDisaster Info.WeblogTrackbackTyphoon FrontTwiphoonTyphoon Now!Typhoon ImaginationDisaster Info. XMLResourceGoogle EarthGE AnimationAtom FeedGeoJSON
Detalied Best Track (Time Zone = UTC)
Year Month Day Hour Lat. Long. Pressure (hPa) Wind (kt) Class Image Chart
2013 6 16 06 12.0 128.2 1004 0 2 Image Chart
2013 6 16 12 12.6 127.6 1004 0 2 Image Chart
2013 6 16 18 12.9 127.1 1002 0 2 Image Chart
2013 6 17 00 13.3 126.9 1002 0 2 Image Chart
2013 6 17 06 13.9 126.8 1000 0 2 Image Chart
2013 6 17 12 14.5 126.6 1000 0 2 Image Chart
2013 6 17 18 15.5 126.6 998 0 2 Image Chart
2013 6 18 00 16.6 126.6 998 35 3 Image Chart
2013 6 18 06 17.7 126.6 996 35 3 Image Chart
2013 6 18 12 18.9 126.2 996 35 3 Image Chart
2013 6 18 18 19.7 125.7 994 40 3 Image Chart
2013 6 19 00 21.0 125.3 994 40 3 Image Chart
2013 6 19 06 22.3 125.2 994 40 3 Image Chart
2013 6 19 12 24.1 125.4 994 40 3 Image Chart
2013 6 19 15 24.6 125.3 994 40 3 Image Chart
2013 6 19 18 25.2 124.9 994 40 3 Image Chart
2013 6 19 21 26.1 124.9 994 40 3 Image Chart
2013 6 20 00 26.8 124.8 994 40 3 Image Chart
2013 6 20 06 28.5 125.2 994 40 3 Image Chart
2013 6 20 12 30.0 125.7 996 35 3 Image Chart
2013 6 20 18 31.0 126.3 998 35 3 Image Chart
2013 6 20 21 31.8 127.0 998 35 3 Image Chart
2013 6 21 00 32.0 127.0 1002 0 6 Image Chart
2013 6 21 06 32.8 129.9 1002 0 6 Image Chart
2013 6 21 12 32.4 135.7 1004 0 6 Image Chart
2013 6 21 18 32.7 140.1 1000 0 6 Image Chart
2013 6 22 00 33.4 145.9 1000 0 6 Image Chart
2013 6 22 06 34.2 150.1 1000 0 6 Image Chart
2013 6 22 12 35.0 153.5 1000 0 6 Image Chart
2013 6 22 18 36.6 157.2 1000 0 6 Image Chart
2013 6 23 00 38.1 161.0 1000 0 6 Image Chart
2013 6 23 06 43.1 170.4 1004 0 6 Image Chart
2013 6 23 12 44.5 174.0 1004 0 6 Image Chart
2013 6 23 18 46.0 177.9 1008 0 6 Image Chart
Japan Meteorological Agency Best Track Data | Correction Date : 2013-07-16
< Typhoon 201303 2013 Season Typhoon 201305 >

Help